createdAt,value
2018-08-11T00:01:34.590Z,14.89
2018-08-11T00:04:03.119Z,14.83
2018-08-11T00:06:31.633Z,14.82
2018-08-11T00:09:00.173Z,14.79
2018-08-11T00:11:28.676Z,14.76
2018-08-11T00:13:58.320Z,14.74
2018-08-11T00:16:26.800Z,14.70
2018-08-11T00:18:55.373Z,14.61
2018-08-11T00:21:23.930Z,14.61
2018-08-11T00:23:53.077Z,14.61
2018-08-11T00:26:21.558Z,14.62
2018-08-11T00:28:50.140Z,14.55
2018-08-11T00:31:18.656Z,14.49
2018-08-11T00:33:47.261Z,14.47
2018-08-11T00:36:15.749Z,14.49
2018-08-11T00:38:44.254Z,14.55
2018-08-11T00:41:12.810Z,14.47
2018-08-11T00:43:41.335Z,14.38
2018-08-11T00:46:09.867Z,14.41
2018-08-11T00:48:38.431Z,14.44
2018-08-11T00:51:06.967Z,14.41
2018-08-11T00:53:35.582Z,14.34
2018-08-11T00:56:04.086Z,14.33
2018-08-11T00:58:32.737Z,14.33
2018-08-11T01:01:01.266Z,14.28
2018-08-11T01:03:29.755Z,14.23
2018-08-11T01:05:58.261Z,14.24
2018-08-11T01:08:26.764Z,14.25
2018-08-11T01:10:55.279Z,14.26
2018-08-11T01:13:23.798Z,14.16
2018-08-11T01:15:52.314Z,14.16
2018-08-11T01:18:20.818Z,14.16
2018-08-11T01:20:49.415Z,14.17
2018-08-11T01:23:18.010Z,14.17
2018-08-11T01:25:46.511Z,14.19
2018-08-11T01:28:15.075Z,14.12
2018-08-11T01:30:43.622Z,14.13
2018-08-11T01:33:12.148Z,14.16
2018-08-11T01:35:40.697Z,14.06
2018-08-11T01:38:09.857Z,13.94
2018-08-11T01:40:38.734Z,13.91
2018-08-11T01:43:07.309Z,13.79
2018-08-11T01:45:36.096Z,13.54
2018-08-11T01:48:04.726Z,13.40
2018-08-11T01:50:33.249Z,13.48
2018-08-11T01:53:01.726Z,13.35
2018-08-11T01:55:30.241Z,13.20
2018-08-11T01:57:58.702Z,13.17
2018-08-11T02:00:27.280Z,13.32
2018-08-11T02:02:55.736Z,13.32
2018-08-11T02:05:24.277Z,13.35
2018-08-11T02:07:52.762Z,13.41
2018-08-11T02:10:21.717Z,13.55
2018-08-11T02:12:50.205Z,13.66
2018-08-11T02:15:18.977Z,13.70
2018-08-11T02:17:47.550Z,13.68
2018-08-11T02:20:18.323Z,13.67
2018-08-11T02:22:47.892Z,13.67
2018-08-11T02:25:16.385Z,13.69
2018-08-11T02:27:44.917Z,13.67
2018-08-11T02:30:15.332Z,13.75
2018-08-11T02:32:43.902Z,13.75
2018-08-11T02:35:13.074Z,13.77
2018-08-11T02:37:42.438Z,13.83
2018-08-11T02:40:12.666Z,13.91
2018-08-11T02:42:41.157Z,13.99
2018-08-11T02:45:11.486Z,14.09
2018-08-11T02:47:40.064Z,14.14
2018-08-11T02:50:10.326Z,14.14
2018-08-11T02:52:39.484Z,14.20
2018-08-11T02:55:08.051Z,14.24
2018-08-11T02:57:36.513Z,14.26
2018-08-11T03:00:06.961Z,14.11
2018-08-11T03:02:35.570Z,14.08
2018-08-11T03:05:04.142Z,14.12
2018-08-11T03:07:32.649Z,14.04
2018-08-11T03:10:01.162Z,13.96
2018-08-11T03:12:29.657Z,13.82
2018-08-11T03:14:58.160Z,13.72
2018-08-11T03:17:26.642Z,13.83
2018-08-11T03:19:55.135Z,13.66
2018-08-11T03:22:23.636Z,13.65
2018-08-11T03:24:52.121Z,13.62
2018-08-11T03:27:20.606Z,13.58
2018-08-11T03:29:49.077Z,13.45
2018-08-11T03:32:17.560Z,13.49
2018-08-11T03:34:46.057Z,13.39
2018-08-11T03:37:34.602Z,13.39
2018-08-11T03:40:03.326Z,13.35
2018-08-11T03:42:31.795Z,13.19
2018-08-11T03:45:00.272Z,12.99
2018-08-11T03:47:28.811Z,12.97
2018-08-11T03:49:57.273Z,13.08
2018-08-11T03:52:26.320Z,13.15
2018-08-11T03:54:54.750Z,13.16
2018-08-11T03:57:23.261Z,13.36
2018-08-11T03:59:51.750Z,13.40
2018-08-11T04:02:20.274Z,13.52
2018-08-11T04:04:48.721Z,13.53
2018-08-11T04:07:17.208Z,13.57
2018-08-11T04:09:45.674Z,13.58
2018-08-11T04:12:14.219Z,13.58
2018-08-11T04:14:45.882Z,13.58
2018-08-11T04:17:14.417Z,13.68
2018-08-11T04:19:42.904Z,13.71
2018-08-11T04:22:11.488Z,13.81
2018-08-11T04:24:39.992Z,13.86
2018-08-11T04:27:08.577Z,13.93
2018-08-11T04:29:37.039Z,14.10
2018-08-11T04:32:05.555Z,14.28
2018-08-11T04:34:34.031Z,14.35
2018-08-11T04:37:02.702Z,14.53
2018-08-11T04:39:31.158Z,14.55
2018-08-11T04:41:59.723Z,14.82
2018-08-11T04:44:28.281Z,14.82
2018-08-11T04:46:56.782Z,14.91
2018-08-11T04:49:25.325Z,14.90
2018-08-11T04:51:53.814Z,14.94
2018-08-11T04:54:22.298Z,14.96
2018-08-11T04:56:50.800Z,15.03
2018-08-11T04:59:19.245Z,15.01
2018-08-11T05:01:47.762Z,14.98
2018-08-11T05:04:16.226Z,14.86
2018-08-11T05:06:44.706Z,14.86
2018-08-11T05:09:13.154Z,14.84
2018-08-11T05:11:41.633Z,14.91
2018-08-11T05:14:10.114Z,14.81
2018-08-11T05:16:38.617Z,15.00
2018-08-11T05:19:07.218Z,14.87
2018-08-11T05:21:35.711Z,14.83
2018-08-11T05:24:04.190Z,14.93
2018-08-11T05:26:32.788Z,14.98
2018-08-11T05:29:01.501Z,15.04
2018-08-11T05:31:30.183Z,15.17
2018-08-11T05:33:58.750Z,15.12
2018-08-11T05:36:27.302Z,14.91
2018-08-11T05:38:55.818Z,14.91
2018-08-11T05:41:24.329Z,14.99
2018-08-11T05:43:52.841Z,15.20
2018-08-11T05:46:21.401Z,15.17
2018-08-11T05:48:49.879Z,15.40
2018-08-11T05:51:18.343Z,15.51
2018-08-11T05:53:46.841Z,15.57
2018-08-11T05:56:15.313Z,15.62
2018-08-11T05:58:43.842Z,15.42
2018-08-11T06:01:12.322Z,15.48
2018-08-11T06:03:40.839Z,15.60
2018-08-11T06:06:09.298Z,15.85
2018-08-11T06:08:37.788Z,15.91
2018-08-11T06:11:06.626Z,15.65
2018-08-11T06:13:35.106Z,15.53
2018-08-11T06:16:03.617Z,15.51
2018-08-11T06:18:32.265Z,15.70
2018-08-11T06:21:00.862Z,15.72
2018-08-11T06:23:29.384Z,15.62
2018-08-11T06:25:57.871Z,15.65
2018-08-11T06:28:26.399Z,15.91
2018-08-11T06:30:55.007Z,16.37
2018-08-11T06:33:23.507Z,16.45
2018-08-11T06:35:51.979Z,16.22
2018-08-11T06:38:20.492Z,16.19
2018-08-11T06:40:49.138Z,16.14
2018-08-11T06:43:17.534Z,16.09
2018-08-11T06:45:46.039Z,16.07
2018-08-11T06:48:14.506Z,16.21
2018-08-11T06:50:42.952Z,16.67
2018-08-11T06:53:11.414Z,16.63
2018-08-11T06:55:40.714Z,16.91
2018-08-11T06:58:09.202Z,16.73
2018-08-11T07:00:37.644Z,16.52
2018-08-11T07:03:06.141Z,16.42
2018-08-11T07:05:34.618Z,16.65
2018-08-11T07:08:03.130Z,16.93
2018-08-11T07:10:31.610Z,17.06
2018-08-11T07:13:00.110Z,17.14
2018-08-11T07:15:28.591Z,17.48
2018-08-11T07:17:57.070Z,17.87
2018-08-11T07:20:25.628Z,17.86
2018-08-11T07:22:54.307Z,18.08
2018-08-11T07:25:22.789Z,18.29
2018-08-11T07:27:51.566Z,18.54
2018-08-11T07:30:20.265Z,19.47
2018-08-11T07:32:48.745Z,19.69
2018-08-11T07:35:17.250Z,19.71
2018-08-11T07:37:46.252Z,21.13
2018-08-11T07:40:14.773Z,23.17
2018-08-11T07:42:43.330Z,24.58
2018-08-11T07:45:11.839Z,24.64
2018-08-11T07:47:40.354Z,23.49
2018-08-11T07:50:08.858Z,25.27
2018-08-11T07:52:37.310Z,28.15
2018-08-11T07:55:06.053Z,27.78
2018-08-11T07:57:34.525Z,26.98
2018-08-11T08:00:03.105Z,27.44
2018-08-11T08:02:31.622Z,26.85
2018-08-11T08:05:00.153Z,27.57
2018-08-11T08:07:28.634Z,27.52
2018-08-11T08:09:57.209Z,27.54
2018-08-11T08:12:25.789Z,28.16
2018-08-11T08:14:54.316Z,28.72
2018-08-11T08:17:22.830Z,30.75
2018-08-11T08:19:51.390Z,30.39
2018-08-11T08:22:19.895Z,29.24
2018-08-11T08:24:48.410Z,28.89
2018-08-11T08:27:16.905Z,28.71
2018-08-11T08:29:45.421Z,29.52
2018-08-11T08:32:13.975Z,29.22
2018-08-11T08:34:42.519Z,29.08
2018-08-11T08:37:11.005Z,29.91
2018-08-11T08:39:39.578Z,30.47
2018-08-11T08:42:08.325Z,31.39
2018-08-11T08:44:36.872Z,32.03
2018-08-11T08:56:16.076Z,34.05
2018-08-11T08:58:44.660Z,35.75
2018-08-11T09:01:13.145Z,35.70
2018-08-11T09:03:41.984Z,33.17
2018-08-11T09:06:10.544Z,30.01
2018-08-11T09:08:39.134Z,30.22
2018-08-11T09:11:07.815Z,29.60
2018-08-11T09:13:36.343Z,31.08
2018-08-11T09:16:04.885Z,32.68
2018-08-11T09:18:33.559Z,32.60
2018-08-11T09:21:04.912Z,33.62
2018-08-11T09:23:34.197Z,34.43
2018-08-11T09:26:02.843Z,33.42
2018-08-11T09:28:31.351Z,33.92
2018-08-11T09:31:00.007Z,35.02
2018-08-11T09:33:28.484Z,35.14
2018-08-11T09:35:57.022Z,31.19
2018-08-11T09:38:25.722Z,27.79
2018-08-11T09:40:56.366Z,28.13
2018-08-11T09:43:24.952Z,30.93
2018-08-11T09:45:53.517Z,32.18
2018-08-11T09:48:22.052Z,30.01
2018-08-11T09:50:50.643Z,29.40
2018-08-11T09:53:19.136Z,29.03
2018-08-11T09:55:47.756Z,28.63
2018-08-11T09:58:16.282Z,28.86
2018-08-11T10:00:53.891Z,28.66
2018-08-11T10:03:22.842Z,28.17
2018-08-11T10:05:51.482Z,27.73
2018-08-11T10:08:20.057Z,26.23
2018-08-11T10:10:50.342Z,27.34
2018-08-11T10:13:19.574Z,29.19
2018-08-11T10:15:48.351Z,28.64
2018-08-11T10:18:16.861Z,28.62
2018-08-11T10:20:45.579Z,29.71
2018-08-11T10:23:14.231Z,28.95
2018-08-11T10:25:42.810Z,28.48
2018-08-11T10:28:12.250Z,27.85
2018-08-11T10:30:40.788Z,27.90
2018-08-11T10:33:09.288Z,27.79
2018-08-11T10:35:37.826Z,28.84
2018-08-11T10:38:06.289Z,30.08
2018-08-11T10:40:34.786Z,30.28
2018-08-11T10:43:03.306Z,31.14
2018-08-11T10:45:31.894Z,30.64
2018-08-11T10:48:00.381Z,29.79
2018-08-11T10:50:28.892Z,30.62
2018-08-11T10:52:57.376Z,31.66
2018-08-11T10:55:25.912Z,31.74
2018-08-11T10:57:54.421Z,31.95
2018-08-11T11:00:22.941Z,32.62
2018-08-11T11:02:51.466Z,34.40
2018-08-11T11:05:19.982Z,34.84
2018-08-11T11:07:48.465Z,34.04
2018-08-11T11:10:17.002Z,33.57
2018-08-11T11:12:45.452Z,34.42
2018-08-11T11:15:13.986Z,35.18
2018-08-11T11:17:42.460Z,34.92
2018-08-11T11:20:12.299Z,34.05
2018-08-11T11:22:41.531Z,33.52
2018-08-11T11:25:10.117Z,32.04
2018-08-11T11:27:39.306Z,30.09
2018-08-11T11:30:08.222Z,29.35
2018-08-11T11:32:37.730Z,29.28
2018-08-11T11:35:06.414Z,28.97
2018-08-11T11:37:35.018Z,28.77
2018-08-11T11:40:03.790Z,27.62
2018-08-11T11:42:32.382Z,27.39
2018-08-11T11:45:00.973Z,27.48
2018-08-11T11:47:29.631Z,27.48
2018-08-11T11:49:58.272Z,28.00
2018-08-11T11:52:27.113Z,27.74
2018-08-11T11:54:59.529Z,27.11
2018-08-11T11:57:28.822Z,26.90
2018-08-11T11:59:57.685Z,26.71
2018-08-11T12:02:26.425Z,26.80
2018-08-11T12:04:55.459Z,27.00
2018-08-11T12:07:27.047Z,28.10
2018-08-11T12:09:55.670Z,29.47
2018-08-11T12:12:24.400Z,30.87
2018-08-11T12:14:53.277Z,30.45
2018-08-11T12:17:22.894Z,31.66
2018-08-11T12:20:04.553Z,32.81
2018-08-11T12:22:33.130Z,33.53
2018-08-11T12:27:52.743Z,32.59
2018-08-11T12:30:21.395Z,33.12
2018-08-11T12:32:49.972Z,34.00
2018-08-11T12:35:18.552Z,33.57
2018-08-11T12:37:47.326Z,31.50
2018-08-11T12:40:15.988Z,30.43
2018-08-11T12:42:44.535Z,29.60
2018-08-11T12:45:13.016Z,28.11
2018-08-11T12:47:41.665Z,28.10
2018-08-11T12:50:10.378Z,29.24
2018-08-11T12:52:38.902Z,30.45
2018-08-11T12:55:07.469Z,31.05
2018-08-11T12:57:36.013Z,31.52
2018-08-11T13:00:05.420Z,30.91
2018-08-11T13:02:33.938Z,30.35
2018-08-11T13:05:02.468Z,29.72
2018-08-11T13:07:31.012Z,30.28
2018-08-11T13:10:00.168Z,30.73
2018-08-11T13:12:29.053Z,31.83
2018-08-11T13:14:57.789Z,31.07
2018-08-11T13:17:26.618Z,30.74
2018-08-11T13:19:55.168Z,31.30
2018-08-11T13:22:24.441Z,31.26
2018-08-11T13:24:53.324Z,31.48
2018-08-11T13:27:21.989Z,30.25
2018-08-11T13:29:51.135Z,30.45
2018-08-11T13:32:19.976Z,30.17
2018-08-11T13:34:48.512Z,30.91
2018-08-11T13:37:17.049Z,30.59
2018-08-11T13:39:50.733Z,30.30
2018-08-11T13:42:19.654Z,30.36
2018-08-11T13:44:48.187Z,30.29
2018-08-11T13:47:16.950Z,30.16
2018-08-11T13:49:45.507Z,30.40
2018-08-11T13:52:14.031Z,29.68
2018-08-11T13:54:42.533Z,29.89
2018-08-11T13:57:11.046Z,30.26
2018-08-11T13:59:39.517Z,30.05
2018-08-11T14:02:08.069Z,30.06
2018-08-11T14:04:36.545Z,29.04
2018-08-11T14:07:05.149Z,29.15
2018-08-11T14:09:33.617Z,30.05
2018-08-11T14:12:02.148Z,30.96
2018-08-11T14:14:30.878Z,31.17
2018-08-11T14:16:59.754Z,31.37
2018-08-11T14:19:28.333Z,30.73
2018-08-11T14:21:56.856Z,30.35
2018-08-11T14:24:25.379Z,30.32
2018-08-11T14:26:53.896Z,30.06
2018-08-11T14:29:22.385Z,30.08
2018-08-11T14:31:50.880Z,29.95
2018-08-11T14:34:19.448Z,29.73
2018-08-11T14:36:47.920Z,29.64
2018-08-11T14:39:16.505Z,30.13
2018-08-11T14:41:45.041Z,30.62
2018-08-11T14:44:13.583Z,30.35
2018-08-11T14:46:42.117Z,30.06
2018-08-11T14:49:10.580Z,29.96
2018-08-11T14:51:39.037Z,29.12
2018-08-11T14:54:07.585Z,29.94
2018-08-11T14:56:36.061Z,30.88
2018-08-11T14:59:04.561Z,31.43
2018-08-11T15:01:33.105Z,30.78
2018-08-11T15:04:01.585Z,31.13
2018-08-11T15:06:30.039Z,31.24
2018-08-11T15:08:58.607Z,30.28
2018-08-11T15:11:27.109Z,30.53
2018-08-11T15:13:55.617Z,30.44
2018-08-11T15:16:24.166Z,29.87
2018-08-11T15:18:52.599Z,28.99
2018-08-11T15:21:21.068Z,29.49
2018-08-11T15:23:49.574Z,29.81
2018-08-11T15:26:18.019Z,28.35
2018-08-11T15:28:46.525Z,27.41
2018-08-11T15:31:14.968Z,28.14
2018-08-11T15:33:43.505Z,29.06
2018-08-11T15:36:11.981Z,29.53
2018-08-11T15:38:40.469Z,30.02
2018-08-11T15:41:08.925Z,30.76
2018-08-11T15:43:37.405Z,31.58
2018-08-11T15:46:05.877Z,31.70
2018-08-11T15:48:34.457Z,31.31
2018-08-11T15:51:02.931Z,31.26
2018-08-11T15:53:31.436Z,30.86
2018-08-11T15:55:59.869Z,30.56
2018-08-11T15:58:28.345Z,30.93
2018-08-11T16:00:56.828Z,31.16
2018-08-11T16:03:25.337Z,31.32
2018-08-11T16:05:53.794Z,31.85
2018-08-11T16:08:22.301Z,31.64
2018-08-11T16:10:50.764Z,32.00
2018-08-11T16:13:19.225Z,32.08
2018-08-11T16:15:47.678Z,31.29
2018-08-11T16:18:16.197Z,30.89
2018-08-11T16:20:44.674Z,30.75
2018-08-11T16:23:13.113Z,31.28
2018-08-11T16:25:41.573Z,31.31
2018-08-11T16:28:10.029Z,31.17
2018-08-11T16:30:38.481Z,31.08
2018-08-11T16:33:07.113Z,30.64
2018-08-11T16:35:35.580Z,30.55
2018-08-11T16:38:04.017Z,30.60
2018-08-11T16:40:32.498Z,30.78
2018-08-11T16:43:00.957Z,30.91
2018-08-11T16:45:29.425Z,30.47
2018-08-11T16:47:57.934Z,30.22
2018-08-11T16:50:26.360Z,30.14
2018-08-11T16:52:54.828Z,30.02
2018-08-11T16:55:23.304Z,29.76
2018-08-11T16:57:51.760Z,29.80
2018-08-11T17:00:20.266Z,29.76
2018-08-11T17:02:48.712Z,30.09
2018-08-11T17:05:17.185Z,29.47
2018-08-11T17:07:45.613Z,29.49
2018-08-11T17:10:14.069Z,28.98
2018-08-11T17:12:42.508Z,29.13
2018-08-11T17:15:11.308Z,29.33
2018-08-11T17:17:39.801Z,29.45
2018-08-11T17:20:08.685Z,29.36
2018-08-11T17:22:37.152Z,29.11
2018-08-11T17:25:05.705Z,28.86
2018-08-11T17:27:34.416Z,28.45
2018-08-11T17:30:02.898Z,28.63
2018-08-11T17:32:31.401Z,28.63
2018-08-11T17:34:59.904Z,28.60
2018-08-11T17:37:28.372Z,28.15
2018-08-11T17:39:56.849Z,28.02
2018-08-11T17:42:25.384Z,27.80
2018-08-11T17:44:53.844Z,27.66
2018-08-11T17:47:22.285Z,27.65
2018-08-11T17:49:50.809Z,27.30
2018-08-11T17:52:19.286Z,26.76
2018-08-11T17:54:47.795Z,26.40
2018-08-11T17:57:16.197Z,26.02
2018-08-11T17:59:44.677Z,25.43
2018-08-11T18:02:13.124Z,25.05
2018-08-11T18:04:41.601Z,24.73
2018-08-11T18:07:10.073Z,24.47
2018-08-11T18:09:38.576Z,24.29
2018-08-11T18:12:07.393Z,24.02
2018-08-11T18:14:35.891Z,23.81
2018-08-11T18:17:04.556Z,23.49
2018-08-11T18:19:33.072Z,23.30
2018-08-11T18:22:01.704Z,23.15
2018-08-11T18:24:30.160Z,22.94
2018-08-11T18:26:58.650Z,22.85
2018-08-11T18:29:27.097Z,22.77
2018-08-11T18:31:55.597Z,22.66
2018-08-11T18:34:24.054Z,22.55
2018-08-11T18:36:52.533Z,22.48
2018-08-11T18:39:21.026Z,22.38
2018-08-11T18:41:49.480Z,22.28
2018-08-11T18:44:17.915Z,22.25
2018-08-11T18:46:46.380Z,22.17
2018-08-11T18:49:15.039Z,22.07
2018-08-11T18:51:43.759Z,21.95
2018-08-11T18:54:12.248Z,21.73
2018-08-11T18:56:40.768Z,21.61
2018-08-11T18:59:09.324Z,21.50
2018-08-11T19:01:37.788Z,21.42
2018-08-11T19:04:06.500Z,21.41
2018-08-11T19:06:35.041Z,21.35
2018-08-11T19:09:03.759Z,21.29
2018-08-11T19:11:32.252Z,21.20
2018-08-11T19:14:00.790Z,21.11
2018-08-11T19:16:29.293Z,21.05
2018-08-11T19:18:57.799Z,21.02
2018-08-11T19:21:26.276Z,20.96
2018-08-11T19:23:54.732Z,20.68
2018-08-11T19:26:23.297Z,20.66
2018-08-11T19:28:51.795Z,20.60
2018-08-11T19:31:20.412Z,20.32
2018-08-11T19:33:48.924Z,20.26
2018-08-11T19:36:17.408Z,20.02
2018-08-11T19:38:45.949Z,20.09
2018-08-11T19:41:14.519Z,19.93
2018-08-11T19:43:43.032Z,19.97
2018-08-11T19:46:11.671Z,19.87
2018-08-11T19:48:40.222Z,19.78
2018-08-11T19:51:08.786Z,19.72
2018-08-11T19:53:37.310Z,19.70
2018-08-11T19:56:05.872Z,19.66
2018-08-11T19:58:34.348Z,19.62
2018-08-11T20:01:02.959Z,19.51
2018-08-11T20:03:32.346Z,19.47
2018-08-11T20:06:00.844Z,19.32
2018-08-11T20:08:29.384Z,19.26
2018-08-11T20:10:57.929Z,19.14
2018-08-11T20:13:26.444Z,19.16
2018-08-11T20:15:55.039Z,19.07
2018-08-11T20:18:23.564Z,19.04
2018-08-11T20:20:52.091Z,18.97
2018-08-11T20:23:20.624Z,18.79
2018-08-11T20:25:49.157Z,18.73
2018-08-11T20:28:17.706Z,18.72
2018-08-11T20:30:46.365Z,18.66
2018-08-11T20:33:14.954Z,18.67
2018-08-11T20:35:44.167Z,18.60
2018-08-11T20:38:12.799Z,18.54
2018-08-11T20:40:41.301Z,18.46
2018-08-11T20:43:10.066Z,18.32
2018-08-11T20:45:38.618Z,18.22
2018-08-11T20:48:07.173Z,18.16
2018-08-11T20:50:35.706Z,18.14
2018-08-11T20:53:04.315Z,18.06
2018-08-11T20:55:32.806Z,18.16
2018-08-11T20:58:01.380Z,18.20
2018-08-11T21:00:29.899Z,18.19
2018-08-11T21:02:58.468Z,18.01
2018-08-11T21:05:26.996Z,17.99
2018-08-11T21:07:55.537Z,18.07
2018-08-11T21:10:24.567Z,18.11
2018-08-11T21:12:53.602Z,18.09
2018-08-11T21:15:22.202Z,17.99
2018-08-11T21:17:50.757Z,17.96
2018-08-11T21:20:19.243Z,17.69
2018-08-11T21:22:47.784Z,17.56
2018-08-11T21:25:16.364Z,17.55
2018-08-11T21:27:44.925Z,17.67
2018-08-11T21:30:14.814Z,17.67
2018-08-11T21:32:43.580Z,17.62
2018-08-11T21:35:12.315Z,17.51
2018-08-11T21:37:40.849Z,17.36
2018-08-11T21:40:12.754Z,17.40
2018-08-11T21:42:41.717Z,17.45
2018-08-11T21:45:10.546Z,17.32
2018-08-11T21:47:39.777Z,17.23
2018-08-11T21:50:08.866Z,17.15
2018-08-11T21:52:38.046Z,17.01
2018-08-11T21:55:07.202Z,17.08
2018-08-11T21:57:36.480Z,16.93
2018-08-11T22:00:14.893Z,16.89
2018-08-11T22:02:43.529Z,17.01
2018-08-11T22:05:12.055Z,16.87
2018-08-11T22:07:40.575Z,16.70
2018-08-11T22:10:09.133Z,16.51
2018-08-11T22:12:37.669Z,16.68
2018-08-11T22:15:06.226Z,16.70
2018-08-11T22:17:34.741Z,16.62
2018-08-11T22:20:03.297Z,16.51
2018-08-11T22:22:31.881Z,16.44
2018-08-11T22:25:00.358Z,16.47
2018-08-11T22:27:28.909Z,16.51
2018-08-11T22:29:57.486Z,16.45
2018-08-11T22:32:27.025Z,16.44
2018-08-11T22:34:55.556Z,16.53
2018-08-11T22:37:24.100Z,16.53
2018-08-11T22:39:52.628Z,16.51
2018-08-11T22:42:21.154Z,16.43
2018-08-11T22:44:49.685Z,16.42
2018-08-11T22:47:18.271Z,16.32
2018-08-11T22:49:46.734Z,16.18
2018-08-11T22:52:15.385Z,16.08
2018-08-11T22:54:44.077Z,16.06
2018-08-11T22:57:12.857Z,16.11
2018-08-11T22:59:41.687Z,16.19
2018-08-11T23:02:10.512Z,16.14
2018-08-11T23:04:39.297Z,16.09
2018-08-11T23:07:08.234Z,16.04
2018-08-11T23:09:37.278Z,16.06
2018-08-11T23:12:06.116Z,16.05
2018-08-11T23:14:34.900Z,16.05
2018-08-11T23:17:03.714Z,16.09
2018-08-11T23:19:32.485Z,15.92
2018-08-11T23:22:01.162Z,15.76
2018-08-11T23:24:29.884Z,15.62
2018-08-11T23:26:58.389Z,15.69
2018-08-11T23:29:27.808Z,15.60
2018-08-11T23:31:56.693Z,15.51
2018-08-11T23:34:25.181Z,15.57
2018-08-11T23:36:53.877Z,15.53
2018-08-11T23:39:22.496Z,15.23
2018-08-11T23:41:51.241Z,15.02
2018-08-11T23:44:20.096Z,14.90
2018-08-11T23:46:48.930Z,14.78
2018-08-11T23:49:17.760Z,14.86
2018-08-11T23:51:46.329Z,14.92
2018-08-11T23:54:14.909Z,14.85
2018-08-11T23:56:43.590Z,14.79
2018-08-11T23:59:12.134Z,14.82
